createdAt,value
2023-01-08T00:00:22.077Z,73049.50
2023-01-08T00:00:54.466Z,73049.50
2023-01-08T00:01:29.366Z,73049.50
2023-01-08T00:02:01.782Z,73051.50
2023-01-08T00:02:34.063Z,73041.50
2023-01-08T00:03:09.018Z,73045.50
2023-01-08T00:03:41.611Z,73043.50
2023-01-08T00:04:18.069Z,73041.50
2023-01-08T00:04:50.350Z,73045.50
2023-01-08T00:05:22.592Z,73049.50
2023-01-08T00:05:57.416Z,73045.50
2023-01-08T00:06:29.670Z,73049.50
2023-01-08T00:07:01.896Z,73049.50
2023-01-08T00:07:37.131Z,73049.50
2023-01-08T00:08:09.878Z,73047.50
2023-01-08T00:08:42.229Z,73049.50
2023-01-08T00:09:19.703Z,73051.50
2023-01-08T00:09:52.366Z,73047.50
2023-01-08T00:10:24.594Z,73047.50
2023-01-08T00:10:59.748Z,73049.50
2023-01-08T00:11:31.989Z,73049.50
2023-01-08T00:12:07.426Z,73049.50
2023-01-08T00:12:39.710Z,73049.50
2023-01-08T00:13:11.927Z,73051.50
2023-01-08T00:13:46.821Z,73049.50
2023-01-08T00:14:19.058Z,73055.47
2023-01-08T00:14:51.299Z,73049.50
2023-01-08T00:15:26.123Z,73053.50
2023-01-08T00:16:03.358Z,73053.50
2023-01-08T00:16:38.289Z,73049.50
2023-01-08T00:17:10.536Z,73053.50
2023-01-08T00:17:45.362Z,73049.50
2023-01-08T00:18:17.581Z,73049.50
2023-01-08T00:18:49.804Z,73045.50
2023-01-08T00:19:24.892Z,73043.50
2023-01-08T00:19:57.141Z,73041.50
2023-01-08T00:20:29.565Z,73049.50
2023-01-08T00:21:04.412Z,73043.50
2023-01-08T00:21:36.649Z,73041.50
2023-01-08T00:22:08.945Z,73047.50
2023-01-08T00:22:43.790Z,73049.50
2023-01-08T00:23:17.012Z,73045.50
2023-01-08T00:23:49.414Z,73045.50
2023-01-08T00:24:26.881Z,73047.50
2023-01-08T00:24:59.094Z,73053.50
2023-01-08T00:25:31.317Z,73049.50
2023-01-08T00:26:06.616Z,73053.50
2023-01-08T00:26:38.855Z,73053.50
2023-01-08T00:27:11.146Z,73057.47
2023-01-08T00:27:46.095Z,73059.47
2023-01-08T00:28:18.462Z,73065.47
2023-01-08T00:28:53.312Z,73061.47
2023-01-08T00:29:25.546Z,73061.47
2023-01-08T00:29:57.778Z,73057.47
2023-01-08T00:30:32.929Z,73059.47
2023-01-08T00:31:05.920Z,73051.50
2023-01-08T00:31:38.272Z,73051.50
2023-01-08T00:32:13.108Z,73055.47
2023-01-08T00:32:45.360Z,73055.47
2023-01-08T00:33:17.724Z,73045.50
2023-01-08T00:33:52.555Z,73049.50
2023-01-08T00:34:24.884Z,73055.47
2023-01-08T00:34:57.195Z,73051.50
2023-01-08T00:35:32.058Z,73049.50
2023-01-08T00:36:07.989Z,73051.50
2023-01-08T00:36:40.224Z,73053.50
2023-01-08T00:37:15.246Z,73053.50
2023-01-08T00:37:49.557Z,73045.50
2023-01-08T00:38:25.916Z,73049.50
2023-01-08T00:39:01.996Z,73047.50
2023-01-08T00:39:36.843Z,73045.50
2023-01-08T00:40:10.372Z,73049.50
2023-01-08T00:40:45.258Z,73043.50
2023-01-08T00:41:18.143Z,73049.50
2023-01-08T00:41:50.425Z,73045.50
2023-01-08T00:42:25.304Z,73049.50
2023-01-08T00:42:57.574Z,73045.50
2023-01-08T00:43:32.398Z,73047.50
2023-01-08T00:44:04.781Z,73045.50
2023-01-08T00:44:37.012Z,73045.50
2023-01-08T00:45:12.880Z,73041.50
2023-01-08T00:45:45.176Z,73043.50
2023-01-08T00:46:17.571Z,73041.50
2023-01-08T00:46:52.415Z,73043.50
2023-01-08T00:47:24.659Z,73037.53
2023-01-08T00:47:56.950Z,73045.50
2023-01-08T00:48:33.533Z,73045.50
2023-01-08T00:49:05.795Z,73043.50
2023-01-08T00:49:38.057Z,73041.50
2023-01-08T00:50:13.215Z,73049.50
2023-01-08T00:50:45.458Z,73045.50
2023-01-08T00:51:17.685Z,73043.50
2023-01-08T00:51:52.505Z,73041.50
2023-01-08T00:52:24.922Z,73043.50
2023-01-08T00:52:57.147Z,73039.50
2023-01-08T00:53:32.113Z,73041.50
2023-01-08T00:54:04.424Z,73045.50
2023-01-08T00:54:41.857Z,73039.50
2023-01-08T00:55:14.168Z,73041.50
2023-01-08T00:55:46.438Z,73041.50
2023-01-08T00:56:21.250Z,73037.53
2023-01-08T00:56:55.616Z,73031.53
2023-01-08T00:57:27.853Z,73035.53
2023-01-08T00:58:02.668Z,73045.50
2023-01-08T00:58:35.314Z,73041.50
2023-01-08T00:59:07.691Z,73037.53
2023-01-08T00:59:42.531Z,73041.50
2023-01-08T01:00:16.412Z,73041.50
2023-01-08T01:00:48.907Z,73037.53
2023-01-08T01:01:23.926Z,73037.53
2023-01-08T01:01:56.460Z,73039.50
2023-01-08T01:02:28.861Z,73035.53
2023-01-08T01:03:03.730Z,73033.53
2023-01-08T01:03:35.998Z,73037.53
2023-01-08T01:04:08.304Z,73033.53
2023-01-08T01:04:43.236Z,73029.53
2023-01-08T01:05:15.735Z,73027.53
2023-01-08T01:05:47.996Z,73029.53
2023-01-08T01:06:22.859Z,73025.53
2023-01-08T01:06:55.118Z,73029.53
2023-01-08T01:07:27.376Z,73025.53
2023-01-08T01:08:02.223Z,73025.53
2023-01-08T01:08:34.827Z,73025.53
2023-01-08T01:09:07.071Z,73025.53
2023-01-08T01:09:44.593Z,73029.53
2023-01-08T01:10:17.722Z,73025.53
2023-01-08T01:10:49.950Z,73023.53
2023-01-08T01:11:26.527Z,73023.53
2023-01-08T01:11:58.754Z,73021.56
2023-01-08T01:12:31.025Z,73021.56
2023-01-08T01:13:05.870Z,73017.56
2023-01-08T01:13:38.123Z,73021.56
2023-01-08T01:14:13.009Z,73017.56
2023-01-08T01:14:45.228Z,73023.53
2023-01-08T01:15:18.365Z,73023.53
2023-01-08T01:15:58.260Z,73021.56
2023-01-08T01:16:33.128Z,73023.53
2023-01-08T01:17:05.528Z,73025.53
2023-01-08T01:17:39.256Z,73019.56
2023-01-08T01:18:14.302Z,73025.53
2023-01-08T01:18:46.637Z,73023.53
2023-01-08T01:19:18.884Z,73021.56
2023-01-08T01:19:53.933Z,73021.56
2023-01-08T01:20:26.235Z,73025.53
2023-01-08T01:20:58.489Z,73023.53
2023-01-08T01:21:34.491Z,73027.53
2023-01-08T01:22:06.900Z,73025.53
2023-01-08T01:22:39.577Z,73027.53
2023-01-08T01:23:14.397Z,73021.56
2023-01-08T01:23:46.635Z,73021.56
2023-01-08T01:24:18.933Z,73025.53
2023-01-08T01:24:56.380Z,73023.53
2023-01-08T01:25:28.604Z,73025.53
2023-01-08T01:26:00.822Z,73025.53
2023-01-08T01:26:36.252Z,73023.53
2023-01-08T01:27:08.496Z,73025.53
2023-01-08T01:27:40.739Z,73021.56
2023-01-08T01:28:16.340Z,73021.56
2023-01-08T01:28:49.527Z,73023.53
2023-01-08T01:29:21.777Z,73023.53
2023-01-08T01:29:57.074Z,73023.53
2023-01-08T01:30:29.299Z,73025.53
2023-01-08T01:31:03.898Z,73025.53
2023-01-08T01:31:38.782Z,73025.53
2023-01-08T01:32:11.016Z,73025.53
2023-01-08T01:32:43.234Z,73025.53
2023-01-08T01:33:18.116Z,73021.56
2023-01-08T01:33:51.117Z,73023.53
2023-01-08T01:34:23.397Z,73019.56
2023-01-08T01:34:58.225Z,73023.53
2023-01-08T01:35:30.497Z,73021.56
2023-01-08T01:36:03.385Z,73025.53
2023-01-08T01:36:38.231Z,73025.53
2023-01-08T01:37:13.197Z,73027.53
2023-01-08T01:37:45.548Z,73027.53
2023-01-08T01:38:20.448Z,73029.53
2023-01-08T01:38:54.393Z,73029.53
2023-01-08T01:39:27.001Z,73031.53
2023-01-08T01:40:04.661Z,73025.53
2023-01-08T01:40:42.123Z,73029.53
2023-01-08T01:41:20.338Z,73031.53
2023-01-08T01:41:55.269Z,73029.53
2023-01-08T01:42:44.103Z,73029.53
2023-01-08T01:43:16.404Z,73033.53
2023-01-08T01:43:51.312Z,73029.53
2023-01-08T01:44:36.172Z,73025.53
2023-01-08T01:45:22.585Z,73029.53
2023-01-08T01:45:55.134Z,73025.53
2023-01-08T01:46:36.242Z,73029.53
2023-01-08T01:47:17.135Z,73025.53
2023-01-08T01:47:53.810Z,73025.53
2023-01-08T01:48:26.349Z,73029.53
2023-01-08T01:49:03.169Z,73027.53
2023-01-08T01:49:35.503Z,73025.53
2023-01-08T01:50:10.857Z,73025.53
2023-01-08T01:50:47.610Z,73023.53
2023-01-08T01:51:20.280Z,73025.53
2023-01-08T01:51:54.712Z,73023.53
2023-01-08T01:52:28.376Z,73025.53
2023-01-08T01:53:05.546Z,73019.56
2023-01-08T01:53:38.134Z,73025.53
2023-01-08T01:54:11.570Z,73021.56
2023-01-08T01:54:46.418Z,73021.56
2023-01-08T01:55:21.365Z,73021.56
2023-01-08T01:55:54.059Z,73017.56
2023-01-08T01:56:29.399Z,73019.56
2023-01-08T01:57:01.628Z,73017.56
2023-01-08T01:57:34.499Z,73017.56
2023-01-08T01:58:13.651Z,73015.56
2023-01-08T01:58:45.863Z,73021.56
2023-01-08T01:59:18.184Z,73015.56
2023-01-08T01:59:50.463Z,73013.56
2023-01-08T02:00:25.842Z,73013.56
2023-01-08T02:01:00.216Z,73017.56
2023-01-08T02:01:32.989Z,73015.56
2023-01-08T02:02:08.023Z,73013.56
2023-01-08T02:02:40.365Z,73011.56
2023-01-08T02:03:14.624Z,73009.56
2023-01-08T02:03:49.576Z,73005.56
2023-01-08T02:04:21.869Z,73009.56
2023-01-08T02:04:54.160Z,73009.56
2023-01-08T02:05:32.690Z,73011.56
2023-01-08T02:06:13.536Z,73009.56
2023-01-08T02:06:51.379Z,73013.56
2023-01-08T02:07:28.061Z,73013.56
2023-01-08T02:08:04.306Z,73013.56
2023-01-08T02:08:45.597Z,73009.56
2023-01-08T02:09:22.514Z,73013.56
2023-01-08T02:10:03.752Z,73013.56
2023-01-08T02:10:43.685Z,73007.56
2023-01-08T02:11:22.528Z,73009.56
2023-01-08T02:12:14.405Z,73009.56
2023-01-08T02:12:51.819Z,73005.56
2023-01-08T02:13:26.970Z,73001.59
2023-01-08T02:14:05.018Z,73003.59
2023-01-08T02:14:40.910Z,73003.59
2023-01-08T02:15:19.868Z,73001.59
2023-01-08T02:15:56.374Z,72995.59
2023-01-08T02:16:33.725Z,72997.59
2023-01-08T02:17:12.146Z,72995.59
2023-01-08T02:17:48.719Z,72999.59
2023-01-08T02:18:24.448Z,72997.59
2023-01-08T02:19:03.791Z,72997.59
2023-01-08T02:19:40.984Z,72991.59
2023-01-08T02:20:16.746Z,72993.59
2023-01-08T02:20:57.290Z,72993.59
2023-01-08T02:21:35.787Z,72991.59
2023-01-08T02:22:18.617Z,72995.59
2023-01-08T02:23:13.771Z,72999.59
2023-01-08T02:23:52.174Z,72997.59
2023-01-08T02:24:33.278Z,73001.59
2023-01-08T02:25:10.723Z,72995.59
2023-01-08T02:26:07.824Z,73001.59
2023-01-08T02:26:40.904Z,72997.59
2023-01-08T02:27:17.455Z,72991.59
2023-01-08T02:27:51.759Z,72995.59
2023-01-08T02:28:25.490Z,72997.59
2023-01-08T02:29:03.387Z,72995.59
2023-01-08T02:29:36.087Z,72993.59
2023-01-08T02:30:09.455Z,72989.59
2023-01-08T02:30:45.059Z,72993.59
2023-01-08T02:31:19.024Z,72997.59
2023-01-08T02:31:51.548Z,73001.59
2023-01-08T02:32:29.489Z,72997.59
2023-01-08T02:33:01.723Z,73001.59
2023-01-08T02:33:34.022Z,72999.59
2023-01-08T02:34:09.128Z,73005.56
2023-01-08T02:34:41.368Z,73009.56
2023-01-08T02:35:13.770Z,73001.59
2023-01-08T02:35:55.110Z,73005.56
2023-01-08T02:36:36.595Z,73005.56
2023-01-08T02:37:12.019Z,73009.56
2023-01-08T02:37:44.361Z,73005.56
2023-01-08T02:38:16.858Z,73005.56
2023-01-08T02:38:57.857Z,73001.59
2023-01-08T02:39:44.755Z,72997.59
2023-01-08T02:40:25.975Z,72997.59
2023-01-08T02:41:04.889Z,72997.59
2023-01-08T02:41:49.438Z,72997.59
2023-01-08T02:42:26.136Z,72997.59
2023-01-08T02:43:04.791Z,72997.59
2023-01-08T02:43:42.893Z,73001.59
2023-01-08T02:44:28.305Z,72997.59
2023-01-08T02:45:08.984Z,72999.59
2023-01-08T02:45:45.218Z,73001.59
2023-01-08T02:46:20.147Z,73005.56
2023-01-08T02:46:55.507Z,72999.59
2023-01-08T02:47:32.354Z,72997.59
2023-01-08T02:48:09.552Z,73001.59
2023-01-08T02:48:47.359Z,72997.59
2023-01-08T02:49:20.148Z,72997.59
2023-01-08T02:49:59.799Z,72997.59
2023-01-08T02:50:37.856Z,72995.59
2023-01-08T02:51:13.744Z,72997.59
2023-01-08T02:51:49.547Z,72989.59
2023-01-08T02:52:24.460Z,72993.59
2023-01-08T02:53:00.367Z,72993.59
2023-01-08T02:53:37.518Z,72993.59
2023-01-08T02:54:13.248Z,72991.59
2023-01-08T02:54:47.301Z,72989.59
2023-01-08T02:55:24.151Z,72993.59
2023-01-08T02:56:02.143Z,72991.59
2023-01-08T02:56:37.324Z,72993.59
2023-01-08T02:57:14.691Z,72997.59
2023-01-08T02:57:47.610Z,73001.59
2023-01-08T02:58:20.545Z,72999.59
2023-01-08T02:58:56.409Z,73001.59
2023-01-08T02:59:30.302Z,73001.59
2023-01-08T03:00:02.689Z,72993.59
2023-01-08T03:00:38.077Z,72993.59
2023-01-08T03:01:12.452Z,72997.59
2023-01-08T03:01:46.148Z,72993.59
2023-01-08T03:02:18.593Z,72991.59
2023-01-08T03:02:54.926Z,72989.59
2023-01-08T03:03:28.372Z,72985.63
2023-01-08T03:04:04.460Z,72981.63
2023-01-08T03:04:43.060Z,72983.63
2023-01-08T03:05:21.878Z,72983.63
2023-01-08T03:05:58.991Z,72979.63
2023-01-08T03:06:31.854Z,72975.63
2023-01-08T03:07:04.364Z,72981.63
2023-01-08T03:07:39.250Z,72981.63
2023-01-08T03:08:12.420Z,72973.63
2023-01-08T03:08:47.118Z,72973.63
2023-01-08T03:09:22.233Z,72979.63
2023-01-08T03:09:55.599Z,72977.63
2023-01-08T03:10:29.759Z,72977.63
2023-01-08T03:11:09.056Z,72979.63
2023-01-08T03:11:46.241Z,72981.63
2023-01-08T03:12:24.404Z,72981.63
2023-01-08T03:13:01.922Z,72981.63
2023-01-08T03:13:38.985Z,72981.63
2023-01-08T03:14:18.686Z,72979.63
2023-01-08T03:14:56.335Z,72973.63
2023-01-08T03:15:35.051Z,72977.63
2023-01-08T03:16:11.502Z,72977.63
2023-01-08T03:16:50.101Z,72973.63
2023-01-08T03:17:24.334Z,72975.63
2023-01-08T03:18:02.001Z,72973.63
2023-01-08T03:18:43.221Z,72969.66
2023-01-08T03:19:25.170Z,72969.66
2023-01-08T03:20:01.136Z,72965.66
2023-01-08T03:20:33.880Z,72965.66
2023-01-08T03:21:09.700Z,72965.66
2023-01-08T03:21:43.270Z,72965.66
2023-01-08T03:22:16.507Z,72961.66
2023-01-08T03:22:51.189Z,72965.66
2023-01-08T03:23:26.370Z,72961.66
2023-01-08T03:23:58.707Z,72969.66
2023-01-08T03:24:34.161Z,72971.66
2023-01-08T03:25:10.316Z,72973.63
2023-01-08T03:25:44.204Z,72969.66
2023-01-08T03:26:24.843Z,72969.66
2023-01-08T03:26:59.167Z,72965.66
2023-01-08T03:27:33.166Z,72965.66
2023-01-08T03:28:11.742Z,72965.66
2023-01-08T03:28:46.844Z,72963.66
2023-01-08T03:29:21.094Z,72961.66
2023-01-08T03:29:57.512Z,72953.69
2023-01-08T03:30:30.706Z,72953.69
2023-01-08T03:31:03.324Z,72953.69
2023-01-08T03:31:38.227Z,72953.69
2023-01-08T03:32:12.943Z,72951.69
2023-01-08T03:32:46.187Z,72945.69
2023-01-08T03:33:21.829Z,72945.69
2023-01-08T03:33:54.872Z,72945.69
2023-01-08T03:34:28.889Z,72949.69
2023-01-08T03:35:05.324Z,72945.69
2023-01-08T03:35:38.525Z,72945.69
2023-01-08T03:36:17.003Z,72945.69
2023-01-08T03:36:53.624Z,72943.69
2023-01-08T03:37:29.571Z,72939.72
2023-01-08T03:38:06.042Z,72937.72
2023-01-08T03:38:43.581Z,72941.72
2023-01-08T03:39:17.850Z,72941.72
2023-01-08T03:39:54.408Z,72941.72
2023-01-08T03:40:32.314Z,72945.69
2023-01-08T03:41:06.971Z,72943.69
2023-01-08T03:41:42.044Z,72941.72
2023-01-08T03:42:18.367Z,72945.69
2023-01-08T03:42:50.735Z,72943.69
2023-01-08T03:43:23.023Z,72941.72
2023-01-08T03:43:57.893Z,72941.72
2023-01-08T03:44:30.116Z,72939.72
2023-01-08T03:45:02.671Z,72941.72
2023-01-08T03:45:38.678Z,72941.72
2023-01-08T03:46:15.216Z,72943.69
2023-01-08T03:46:50.234Z,72933.72
2023-01-08T03:47:25.940Z,72933.72
2023-01-08T03:47:58.826Z,72935.72
2023-01-08T03:48:31.828Z,72933.72
2023-01-08T03:49:07.403Z,72931.72
2023-01-08T03:49:40.708Z,72933.72
2023-01-08T03:50:16.789Z,72935.72
2023-01-08T03:50:51.856Z,72935.72
2023-01-08T03:51:24.129Z,72937.72
2023-01-08T03:51:56.795Z,72933.72
2023-01-08T03:52:30.381Z,72929.72
2023-01-08T03:53:05.270Z,72929.72
2023-01-08T03:53:37.608Z,72933.72
2023-01-08T03:54:12.366Z,72931.72
2023-01-08T03:54:47.203Z,72925.75
2023-01-08T03:55:19.504Z,72925.75
2023-01-08T03:55:51.750Z,72927.72
2023-01-08T03:56:26.627Z,72925.75
2023-01-08T03:57:01.540Z,72927.72
2023-01-08T03:57:33.782Z,72923.75
2023-01-08T03:58:08.670Z,72925.75
2023-01-08T03:58:40.894Z,72921.75
2023-01-08T03:59:13.906Z,72921.75
2023-01-08T03:59:48.856Z,72921.75
2023-01-08T04:00:21.245Z,72913.75
2023-01-08T04:00:54.196Z,72915.75
2023-01-08T04:01:29.165Z,72917.75
2023-01-08T04:02:01.525Z,72917.75
2023-01-08T04:02:34.014Z,72913.75
2023-01-08T04:03:09.717Z,72915.75
2023-01-08T04:03:41.952Z,72917.75
2023-01-08T04:04:14.253Z,72913.75
2023-01-08T04:04:49.235Z,72913.75
2023-01-08T04:05:21.500Z,72913.75
2023-01-08T04:05:53.718Z,72911.75
2023-01-08T04:06:28.743Z,72911.75
2023-01-08T04:07:01.033Z,72915.75
2023-01-08T04:07:33.252Z,72911.75
2023-01-08T04:08:08.383Z,72915.75
2023-01-08T04:08:40.604Z,72915.75
2023-01-08T04:09:12.835Z,72915.75
2023-01-08T04:09:47.662Z,72913.75
2023-01-08T04:10:19.894Z,72917.75
2023-01-08T04:10:52.129Z,72913.75
2023-01-08T04:11:26.975Z,72921.75
2023-01-08T04:12:01.804Z,72917.75
2023-01-08T04:12:34.122Z,72917.75
2023-01-08T04:13:08.952Z,72917.75
2023-01-08T04:13:41.173Z,72917.75
2023-01-08T04:14:13.636Z,72917.75
2023-01-08T04:14:48.450Z,72917.75
2023-01-08T04:15:20.985Z,72913.75
2023-01-08T04:15:53.259Z,72917.75
2023-01-08T04:16:28.122Z,72913.75
2023-01-08T04:17:00.373Z,72919.75
2023-01-08T04:17:32.598Z,72917.75
2023-01-08T04:18:07.559Z,72917.75
2023-01-08T04:18:39.783Z,72913.75
2023-01-08T04:19:12.776Z,72913.75
2023-01-08T04:19:47.583Z,72913.75
2023-01-08T04:20:19.801Z,72911.75
2023-01-08T04:20:52.054Z,72913.75
2023-01-08T04:21:26.887Z,72909.78
2023-01-08T04:21:59.120Z,72909.78
2023-01-08T04:22:31.347Z,72905.78
2023-01-08T04:23:06.176Z,72913.75
2023-01-08T04:23:38.425Z,72913.75
2023-01-08T04:24:13.976Z,72909.78
2023-01-08T04:24:48.822Z,72907.78
2023-01-08T04:25:21.069Z,72905.78
2023-01-08T04:25:53.359Z,72911.75
2023-01-08T04:26:28.198Z,72903.78
2023-01-08T04:27:03.061Z,72909.78
2023-01-08T04:27:35.286Z,72911.75
2023-01-08T04:28:10.129Z,72913.75
2023-01-08T04:28:42.410Z,72913.75
2023-01-08T04:29:14.759Z,72907.78
2023-01-08T04:29:49.569Z,72911.75
2023-01-08T04:30:21.799Z,72913.75
2023-01-08T04:30:54.074Z,72911.75
2023-01-08T04:31:28.952Z,72907.78
2023-01-08T04:32:01.272Z,72903.78
2023-01-08T04:32:36.094Z,72913.75
2023-01-08T04:33:08.318Z,72913.75
2023-01-08T04:33:40.546Z,72911.75
2023-01-08T04:34:15.615Z,72909.78
2023-01-08T04:34:47.866Z,72909.78
2023-01-08T04:35:20.092Z,72907.78
2023-01-08T04:35:55.053Z,72911.75
2023-01-08T04:36:29.866Z,72913.75
2023-01-08T04:37:03.228Z,72915.75
2023-01-08T04:37:35.462Z,72915.75
2023-01-08T04:38:11.641Z,72917.75
2023-01-08T04:38:44.013Z,72917.75
2023-01-08T04:39:16.381Z,72915.75
2023-01-08T04:39:51.217Z,72917.75
2023-01-08T04:40:23.524Z,72919.75
2023-01-08T04:40:57.592Z,72915.75
2023-01-08T04:41:32.423Z,72917.75
2023-01-08T04:42:07.258Z,72915.75
2023-01-08T04:42:39.507Z,72917.75
2023-01-08T04:43:14.333Z,72915.75
2023-01-08T04:43:46.787Z,72917.75
2023-01-08T04:44:21.635Z,72917.75
2023-01-08T04:44:54.160Z,72913.75
2023-01-08T04:45:26.427Z,72913.75
2023-01-08T04:46:01.688Z,72917.75
2023-01-08T04:46:34.371Z,72917.75
2023-01-08T04:47:06.720Z,72913.75
2023-01-08T04:47:41.580Z,72919.75
2023-01-08T04:48:13.809Z,72919.75
2023-01-08T04:48:46.030Z,72919.75
2023-01-08T04:49:20.945Z,72917.75
2023-01-08T04:49:53.158Z,72919.75
2023-01-08T04:50:26.823Z,72917.75
2023-01-08T04:51:01.689Z,72917.75
2023-01-08T04:51:33.926Z,72919.75
2023-01-08T04:52:06.175Z,72913.75
2023-01-08T04:52:41.012Z,72915.75
2023-01-08T04:53:13.258Z,72911.75
2023-01-08T04:53:46.441Z,72913.75
2023-01-08T04:54:21.338Z,72913.75
2023-01-08T04:54:53.558Z,72911.75
2023-01-08T04:55:25.825Z,72913.75
2023-01-08T04:56:06.388Z,72909.78
2023-01-08T04:56:38.632Z,72909.78
2023-01-08T04:57:16.143Z,72909.78
2023-01-08T04:57:48.387Z,72913.75
2023-01-08T04:58:20.830Z,72913.75
2023-01-08T04:58:55.655Z,72913.75
2023-01-08T04:59:27.895Z,72915.75
2023-01-08T05:00:00.192Z,72917.75
2023-01-08T05:00:35.089Z,72919.75
2023-01-08T05:01:11.518Z,72919.75
2023-01-08T05:01:43.956Z,72925.75
2023-01-08T05:02:19.131Z,72917.75
2023-01-08T05:02:51.563Z,72921.75
2023-01-08T05:03:23.911Z,72921.75
2023-01-08T05:03:59.963Z,72921.75
2023-01-08T05:04:32.233Z,72923.75
2023-01-08T05:05:05.299Z,72917.75
2023-01-08T05:05:40.521Z,72923.75
2023-01-08T05:06:12.747Z,72923.75
2023-01-08T05:06:44.976Z,72921.75
2023-01-08T05:07:19.810Z,72923.75
2023-01-08T05:07:52.154Z,72921.75
2023-01-08T05:08:24.383Z,72919.75
2023-01-08T05:08:59.258Z,72925.75
2023-01-08T05:09:31.519Z,72921.75
2023-01-08T05:10:04.605Z,72929.72
2023-01-08T05:10:39.468Z,72925.75
2023-01-08T05:11:11.699Z,72923.75
2023-01-08T05:11:43.922Z,72925.75
2023-01-08T05:12:21.683Z,72925.75
2023-01-08T05:12:58.634Z,72925.75
2023-01-08T05:13:31.249Z,72929.72
2023-01-08T05:14:03.506Z,72921.75
2023-01-08T05:14:38.323Z,72923.75
2023-01-08T05:15:10.955Z,72921.75
2023-01-08T05:15:43.255Z,72919.75
2023-01-08T05:16:15.882Z,72921.75
2023-01-08T05:16:50.727Z,72919.75
2023-01-08T05:17:22.982Z,72913.75
2023-01-08T05:18:01.926Z,72921.75
2023-01-08T05:18:36.748Z,72917.75
2023-01-08T05:19:08.984Z,72917.75
2023-01-08T05:19:41.325Z,72917.75
2023-01-08T05:20:17.921Z,72917.75
2023-01-08T05:20:51.154Z,72919.75
2023-01-08T05:21:25.981Z,72919.75
2023-01-08T05:21:58.230Z,72921.75
2023-01-08T05:22:30.455Z,72921.75
2023-01-08T05:23:03.027Z,72915.75
2023-01-08T05:23:37.895Z,72915.75
2023-01-08T05:24:10.126Z,72921.75
2023-01-08T05:24:42.332Z,72913.75
2023-01-08T05:25:17.323Z,72921.75
2023-01-08T05:25:49.550Z,72917.75
2023-01-08T05:26:21.838Z,72921.75
2023-01-08T05:26:56.720Z,72919.75
2023-01-08T05:27:31.536Z,72917.75
2023-01-08T05:28:04.114Z,72915.75
2023-01-08T05:28:38.994Z,72921.75
2023-01-08T05:29:11.311Z,72917.75
2023-01-08T05:29:43.528Z,72917.75
2023-01-08T05:30:18.768Z,72921.75
2023-01-08T05:30:51.134Z,72917.75
2023-01-08T05:31:26.138Z,72919.75
2023-01-08T05:31:58.399Z,72917.75
2023-01-08T05:32:30.628Z,72921.75
2023-01-08T05:33:02.872Z,72921.75
2023-01-08T05:33:37.711Z,72921.75
2023-01-08T05:34:09.972Z,72917.75
2023-01-08T05:34:42.227Z,72921.75
2023-01-08T05:35:17.092Z,72915.75
2023-01-08T05:35:49.343Z,72921.75
2023-01-08T05:36:21.565Z,72919.75
2023-01-08T05:36:56.397Z,72917.75
2023-01-08T05:37:28.653Z,72917.75
2023-01-08T05:38:00.938Z,72915.75
2023-01-08T05:38:33.241Z,72915.75
2023-01-08T05:39:08.069Z,72907.78
2023-01-08T05:39:40.316Z,72911.75
2023-01-08T05:40:13.053Z,72907.78
2023-01-08T05:40:47.991Z,72913.75
2023-01-08T05:41:20.277Z,72907.78
2023-01-08T05:41:55.110Z,72909.78
2023-01-08T05:42:27.347Z,72911.75
2023-01-08T05:43:02.633Z,72917.75
2023-01-08T05:43:37.733Z,72915.75
2023-01-08T05:44:10.671Z,72917.75
2023-01-08T05:44:42.927Z,72917.75
2023-01-08T05:45:18.282Z,72917.75
2023-01-08T05:45:50.521Z,72923.75
2023-01-08T05:46:23.002Z,72925.75
2023-01-08T05:46:58.123Z,72929.72
2023-01-08T05:47:30.989Z,72925.75
2023-01-08T05:48:06.140Z,72925.75
2023-01-08T05:48:40.995Z,72921.75
2023-01-08T05:49:14.298Z,72923.75
2023-01-08T05:49:47.332Z,72925.75
2023-01-08T05:50:22.179Z,72929.72
2023-01-08T05:50:54.425Z,72921.75
2023-01-08T05:51:26.660Z,72925.75
2023-01-08T05:52:01.508Z,72925.75
2023-01-08T05:52:33.770Z,72921.75
2023-01-08T05:53:07.468Z,72925.75
2023-01-08T05:53:42.316Z,72929.72
2023-01-08T05:54:14.643Z,72925.75
2023-01-08T05:54:46.865Z,72923.75
2023-01-08T05:55:21.678Z,72925.75
2023-01-08T05:55:59.139Z,72925.75
2023-01-08T05:56:33.952Z,72927.72
2023-01-08T05:57:06.194Z,72929.72
2023-01-08T05:57:38.545Z,72925.75
2023-01-08T05:58:19.131Z,72925.75
2023-01-08T05:58:54.338Z,72921.75
2023-01-08T05:59:26.588Z,72921.75
2023-01-08T06:00:01.460Z,72917.75
2023-01-08T06:00:43.715Z,72917.75
2023-01-08T06:01:18.761Z,72921.75
2023-01-08T06:01:51.111Z,72915.75
2023-01-08T06:02:23.398Z,72913.75
2023-01-08T06:02:58.337Z,72909.78
2023-01-08T06:03:30.597Z,72913.75
2023-01-08T06:04:04.097Z,72921.75
2023-01-08T06:04:39.045Z,72921.75
2023-01-08T06:05:11.346Z,72925.75
2023-01-08T06:05:43.590Z,72921.75
2023-01-08T06:06:18.837Z,72923.75
2023-01-08T06:06:51.091Z,72927.72
2023-01-08T06:07:23.350Z,72921.75
2023-01-08T06:07:58.208Z,72919.75
2023-01-08T06:08:31.068Z,72919.75
2023-01-08T06:09:03.285Z,72917.75
2023-01-08T06:09:38.171Z,72913.75
2023-01-08T06:10:10.542Z,72913.75
2023-01-08T06:10:42.767Z,72917.75
2023-01-08T06:11:17.625Z,72915.75
2023-01-08T06:11:49.840Z,72921.75
2023-01-08T06:12:22.108Z,72923.75
2023-01-08T06:12:57.116Z,72921.75
2023-01-08T06:13:32.076Z,72921.75
2023-01-08T06:14:06.937Z,72925.75
2023-01-08T06:14:39.181Z,72923.75
2023-01-08T06:15:12.981Z,72921.75
2023-01-08T06:15:47.822Z,72921.75
2023-01-08T06:16:21.098Z,72917.75
2023-01-08T06:16:53.390Z,72917.75
2023-01-08T06:17:28.248Z,72923.75
2023-01-08T06:18:02.811Z,72917.75
2023-01-08T06:18:35.344Z,72919.75
2023-01-08T06:19:10.192Z,72917.75
2023-01-08T06:19:42.496Z,72917.75
2023-01-08T06:20:14.758Z,72921.75
2023-01-08T06:20:49.616Z,72921.75
2023-01-08T06:21:21.848Z,72925.75
2023-01-08T06:21:54.087Z,72921.75
2023-01-08T06:22:29.183Z,72925.75
2023-01-08T06:23:01.443Z,72921.75
2023-01-08T06:23:36.336Z,72915.75
2023-01-08T06:24:08.762Z,72921.75
2023-01-08T06:24:40.973Z,72917.75
2023-01-08T06:25:15.797Z,72925.75
2023-01-08T06:25:52.956Z,72925.75
2023-01-08T06:26:25.211Z,72925.75
2023-01-08T06:27:00.054Z,72925.75
2023-01-08T06:27:32.298Z,72929.72
2023-01-08T06:28:05.272Z,72929.72
2023-01-08T06:28:42.688Z,72929.72
2023-01-08T06:29:14.927Z,72927.72
2023-01-08T06:29:47.150Z,72925.75
2023-01-08T06:30:22.190Z,72925.75
2023-01-08T06:30:54.476Z,72925.75
2023-01-08T06:31:29.538Z,72929.72
2023-01-08T06:32:01.943Z,72925.75
2023-01-08T06:32:34.167Z,72925.75
2023-01-08T06:33:09.003Z,72923.75
2023-01-08T06:33:41.254Z,72927.72
2023-01-08T06:34:13.706Z,72925.75
2023-01-08T06:34:48.531Z,72921.75
2023-01-08T06:35:20.760Z,72921.75
2023-01-08T06:35:55.580Z,72923.75
2023-01-08T06:36:27.837Z,72921.75
2023-01-08T06:37:00.088Z,72917.75
2023-01-08T06:37:34.905Z,72923.75
2023-01-08T06:38:07.159Z,72921.75
2023-01-08T06:38:39.424Z,72919.75
2023-01-08T06:39:15.075Z,72921.75
2023-01-08T06:39:47.416Z,72917.75
2023-01-08T06:40:19.727Z,72913.75
2023-01-08T06:40:54.543Z,72917.75
2023-01-08T06:41:26.797Z,72913.75
2023-01-08T06:41:59.111Z,72913.75
2023-01-08T06:42:33.927Z,72913.75
2023-01-08T06:43:06.155Z,72917.75
2023-01-08T06:43:43.625Z,72917.75
2023-01-08T06:44:15.883Z,72915.75